sensor_id;sensor_type;location;lat;lon;timestamp;pressure;altitude;pressure_sealevel;temperature;humidity
47104;BME280;32853;52.164;5.400;2023-09-12T00:02:17;101148.75;;;23.51;100.00
47104;BME280;32853;52.164;5.400;2023-09-12T00:04:42;101153.25;;;23.50;100.00
47104;BME280;32853;52.164;5.400;2023-09-12T00:07:10;101132.56;;;23.42;100.00
47104;BME280;32853;52.164;5.400;2023-09-12T00:09:39;101197.59;;;23.82;100.00
47104;BME280;32853;52.164;5.400;2023-09-12T00:12:05;101199.69;;;23.78;100.00
47104;BME280;32853;52.164;5.400;2023-09-12T00:14:33;101232.50;;;23.99;100.00
47104;BME280;32853;52.164;5.400;2023-09-12T00:17:24;101238.53;;;24.01;100.00
47104;BME280;32853;52.164;5.400;2023-09-12T00:19:51;101220.38;;;23.86;100.00
47104;BME280;32853;52.164;5.400;2023-09-12T00:22:18;101233.75;;;23.86;100.00
47104;BME280;32853;52.164;5.400;2023-09-12T00:24:43;101185.94;;;23.42;100.00
47104;BME280;32853;52.164;5.400;2023-09-12T00:27:13;101230.72;;;23.69;100.00
47104;BME280;32853;52.164;5.400;2023-09-12T00:29:39;101141.06;;;23.17;100.00
47104;BME280;32853;52.164;5.400;2023-09-12T00:32:12;101031.84;;;22.54;100.00
47104;BME280;32853;52.164;5.400;2023-09-12T00:34:38;101212.47;;;23.65;100.00
47104;BME280;32853;52.164;5.400;2023-09-12T00:37:10;101224.16;;;23.73;100.00
47104;BME280;32853;52.164;5.400;2023-09-12T00:39:37;101118.25;;;23.03;100.00
47104;BME280;32853;52.164;5.400;2023-09-12T00:42:02;101092.66;;;22.70;100.00
47104;BME280;32853;52.164;5.400;2023-09-12T00:44:39;101225.53;;;23.68;100.00
47104;BME280;32853;52.164;5.400;2023-09-12T00:47:13;101206.22;;;23.55;100.00
47104;BME280;32853;52.164;5.400;2023-09-12T00:49:45;101228.75;;;23.62;100.00
47104;BME280;32853;52.164;5.400;2023-09-12T00:52:12;101209.56;;;23.47;100.00
47104;BME280;32853;52.164;5.400;2023-09-12T00:54:39;101190.09;;;23.26;100.00
47104;BME280;32853;52.164;5.400;2023-09-12T00:57:04;101223.44;;;23.62;100.00
47104;BME280;32853;52.164;5.400;2023-09-12T00:59:48;101209.41;;;23.48;100.00
47104;BME280;32853;52.164;5.400;2023-09-12T01:02:13;101171.53;;;23.24;100.00
47104;BME280;32853;52.164;5.400;2023-09-12T01:04:42;101236.03;;;23.60;100.00
47104;BME280;32853;52.164;5.400;2023-09-12T01:07:08;101179.38;;;23.16;100.00
47104;BME280;32853;52.164;5.400;2023-09-12T01:09:34;101024.41;;;22.27;100.00
47104;BME280;32853;52.164;5.400;2023-09-12T01:12:05;101126.53;;;22.79;100.00
47104;BME280;32853;52.164;5.400;2023-09-12T01:14:30;101054.47;;;22.09;100.00
47104;BME280;32853;52.164;5.400;2023-09-12T01:16:57;101230.13;;;23.26;100.00
47104;BME280;32853;52.164;5.400;2023-09-12T01:19:25;100958.22;;;21.60;100.00
47104;BME280;32853;52.164;5.400;2023-09-12T01:27:49;101222.03;;;23.06;100.00
47104;BME280;32853;52.164;5.400;2023-09-12T01:30:18;101231.22;;;22.93;100.00
47104;BME280;32853;52.164;5.400;2023-09-12T01:32:45;101222.66;;;22.78;100.00
47104;BME280;32853;52.164;5.400;2023-09-12T01:35:13;101059.16;;;21.84;100.00
47104;BME280;32853;52.164;5.400;2023-09-12T01:37:41;101173.25;;;22.32;100.00
47104;BME280;32853;52.164;5.400;2023-09-12T01:40:07;101232.09;;;22.61;100.00
47104;BME280;32853;52.164;5.400;2023-09-12T01:42:42;101188.97;;;22.35;100.00
47104;BME280;32853;52.164;5.400;2023-09-12T01:45:15;101233.06;;;22.60;100.00
47104;BME280;32853;52.164;5.400;2023-09-12T01:47:42;101137.38;;;22.04;100.00
47104;BME280;32853;52.164;5.400;2023-09-12T01:50:09;101238.03;;;22.65;100.00
47104;BME280;32853;52.164;5.400;2023-09-12T01:52:45;101195.28;;;22.55;100.00
47104;BME280;32853;52.164;5.400;2023-09-12T01:55:19;101227.22;;;22.66;100.00
47104;BME280;32853;52.164;5.400;2023-09-12T01:57:53;101200.41;;;22.47;100.00
47104;BME280;32853;52.164;5.400;2023-09-12T02:00:21;101213.63;;;22.48;100.00
47104;BME280;32853;52.164;5.400;2023-09-12T02:02:47;101204.38;;;22.31;100.00
47104;BME280;32853;52.164;5.400;2023-09-12T02:05:18;101185.66;;;22.22;100.00
47104;BME280;32853;52.164;5.400;2023-09-12T02:07:45;101238.91;;;22.54;100.00
47104;BME280;32853;52.164;5.400;2023-09-12T02:10:13;101168.34;;;22.05;100.00
47104;BME280;32853;52.164;5.400;2023-09-12T02:12:40;101215.25;;;22.40;100.00
47104;BME280;32853;52.164;5.400;2023-09-12T02:15:06;101221.03;;;22.45;100.00
47104;BME280;32853;52.164;5.400;2023-09-12T02:17:33;101168.53;;;22.24;100.00
47104;BME280;32853;52.164;5.400;2023-09-12T02:19:59;101045.13;;;21.50;100.00
47104;BME280;32853;52.164;5.400;2023-09-12T02:22:25;101157.09;;;22.13;100.00
47104;BME280;32853;52.164;5.400;2023-09-12T02:24:50;100915.00;;;20.72;100.00
47104;BME280;32853;52.164;5.400;2023-09-12T02:27:31;101183.63;;;22.35;100.00
47104;BME280;32853;52.164;5.400;2023-09-12T02:29:56;101157.09;;;22.13;100.00
47104;BME280;32853;52.164;5.400;2023-09-12T02:32:22;101199.34;;;22.38;100.00
47104;BME280;32853;52.164;5.400;2023-09-12T02:34:58;101214.53;;;22.58;100.00
47104;BME280;32853;52.164;5.400;2023-09-12T02:37:24;101132.03;;;22.04;100.00
47104;BME280;32853;52.164;5.400;2023-09-12T02:39:49;101220.41;;;22.52;100.00
47104;BME280;32853;52.164;5.400;2023-09-12T02:42:16;101216.34;;;22.58;100.00
47104;BME280;32853;52.164;5.400;2023-09-12T02:44:41;101158.41;;;22.18;100.00
47104;BME280;32853;52.164;5.400;2023-09-12T02:47:09;101240.53;;;22.45;100.00
47104;BME280;32853;52.164;5.400;2023-09-12T02:49:35;101068.28;;;21.27;100.00
47104;BME280;32853;52.164;5.400;2023-09-12T02:52:03;101177.38;;;21.82;100.00
47104;BME280;32853;52.164;5.400;2023-09-12T02:54:48;101226.00;;;22.17;100.00
47104;BME280;32853;52.164;5.400;2023-09-12T02:57:13;101160.25;;;21.74;100.00
47104;BME280;32853;52.164;5.400;2023-09-12T02:59:39;101158.06;;;21.68;100.00
47104;BME280;32853;52.164;5.400;2023-09-12T03:02:04;101232.78;;;22.10;100.00
47104;BME280;32853;52.164;5.400;2023-09-12T03:04:35;101185.38;;;21.82;100.00
47104;BME280;32853;52.164;5.400;2023-09-12T03:07:01;101175.59;;;21.71;100.00
47104;BME280;32853;52.164;5.400;2023-09-12T03:09:27;101189.97;;;21.91;100.00
47104;BME280;32853;52.164;5.400;2023-09-12T03:11:52;101162.50;;;21.79;100.00
47104;BME280;32853;52.164;5.400;2023-09-12T03:14:17;101198.69;;;21.82;100.00
47104;BME280;32853;52.164;5.400;2023-09-12T03:16:43;101172.56;;;21.75;100.00
47104;BME280;32853;52.164;5.400;2023-09-12T03:21:35;101189.53;;;21.74;100.00
47104;BME280;32853;52.164;5.400;2023-09-12T03:24:01;101142.16;;;21.46;100.00
47104;BME280;32853;52.164;5.400;2023-09-12T03:26:27;101099.84;;;21.21;100.00
47104;BME280;32853;52.164;5.400;2023-09-12T03:28:55;101227.94;;;21.93;100.00
47104;BME280;32853;52.164;5.400;2023-09-12T03:31:35;101188.19;;;21.69;100.00
47104;BME280;32853;52.164;5.400;2023-09-12T03:34:03;101153.63;;;21.46;100.00
47104;BME280;32853;52.164;5.400;2023-09-12T03:36:53;101208.13;;;21.86;100.00
47104;BME280;32853;52.164;5.400;2023-09-12T03:39:28;101199.06;;;21.77;100.00
47104;BME280;32853;52.164;5.400;2023-09-12T03:41:55;101163.41;;;21.57;100.00
47104;BME280;32853;52.164;5.400;2023-09-12T03:44:20;101154.22;;;21.50;100.00
47104;BME280;32853;52.164;5.400;2023-09-12T03:46:46;101216.84;;;21.88;100.00
47104;BME280;32853;52.164;5.400;2023-09-12T03:49:14;101149.88;;;21.49;100.00
47104;BME280;32853;52.164;5.400;2023-09-12T03:51:39;101213.78;;;21.92;100.00
47104;BME280;32853;52.164;5.400;2023-09-12T03:54:05;101053.31;;;20.93;100.00
47104;BME280;32853;52.164;5.400;2023-09-12T03:56:30;101153.47;;;21.59;100.00
47104;BME280;32853;52.164;5.400;2023-09-12T03:58:56;101127.41;;;21.42;100.00
47104;BME280;32853;52.164;5.400;2023-09-12T04:01:25;100947.66;;;20.29;100.00
47104;BME280;32853;52.164;5.400;2023-09-12T04:03:51;101093.81;;;21.18;100.00
47104;BME280;32853;52.164;5.400;2023-09-12T04:06:16;101185.38;;;21.82;100.00
47104;BME280;32853;52.164;5.400;2023-09-12T04:08:42;101157.47;;;21.65;100.00
47104;BME280;32853;52.164;5.400;2023-09-12T04:11:07;101224.53;;;22.02;100.00
47104;BME280;32853;52.164;5.400;2023-09-12T04:13:32;101206.16;;;21.99;100.00
47104;BME280;32853;52.164;5.400;2023-09-12T04:15:57;101097.53;;;21.38;100.00
47104;BME280;32853;52.164;5.400;2023-09-12T04:18:23;101123.75;;;21.54;100.00
47104;BME280;32853;52.164;5.400;2023-09-12T04:20:48;101145.59;;;21.69;100.00
47104;BME280;32853;52.164;5.400;2023-09-12T04:23:13;101120.78;;;21.68;100.00
47104;BME280;32853;52.164;5.400;2023-09-12T04:25:42;101203.72;;;22.18;100.00
47104;BME280;32853;52.164;5.400;2023-09-12T04:28:08;101200.97;;;22.09;100.00
47104;BME280;32853;52.164;5.400;2023-09-12T04:30:44;101144.28;;;21.74;100.00
47104;BME280;32853;52.164;5.400;2023-09-12T04:33:19;101196.94;;;22.03;100.00
47104;BME280;32853;52.164;5.400;2023-09-12T04:35:49;101051.13;;;21.20;100.00
47104;BME280;32853;52.164;5.400;2023-09-12T04:38:15;101189.09;;;21.90;100.00
47104;BME280;32853;52.164;5.400;2023-09-12T04:40:53;101167.84;;;21.79;100.00
47104;BME280;32853;52.164;5.400;2023-09-12T04:43:18;101062.63;;;21.09;100.00
47104;BME280;32853;52.164;5.400;2023-09-12T04:45:56;101184.31;;;21.84;100.00
47104;BME280;32853;52.164;5.400;2023-09-12T04:48:22;101152.91;;;21.56;100.00
47104;BME280;32853;52.164;5.400;2023-09-12T04:50:47;101109.97;;;21.38;100.00
47104;BME280;32853;52.164;5.400;2023-09-12T04:53:15;101205.97;;;21.80;100.00
47104;BME280;32853;52.164;5.400;2023-09-12T04:55:49;101208.16;;;21.74;100.00
47104;BME280;32853;52.164;5.400;2023-09-12T04:58:16;101190.59;;;21.72;100.00
47104;BME280;32853;52.164;5.400;2023-09-12T05:03:17;101074.22;;;21.08;100.00
47104;BME280;32853;52.164;5.400;2023-09-12T05:05:46;101182.88;;;21.69;100.00
47104;BME280;32853;52.164;5.400;2023-09-12T05:08:12;101180.59;;;21.64;100.00
47104;BME280;32853;52.164;5.400;2023-09-12T05:10:39;101042.69;;;20.81;100.00
47104;BME280;32853;52.164;5.400;2023-09-12T05:13:13;101195.34;;;21.57;100.00
47104;BME280;32853;52.164;5.400;2023-09-12T05:15:41;101013.72;;;20.56;100.00
47104;BME280;32853;52.164;5.400;2023-09-12T05:18:09;101096.56;;;21.17;100.00
47104;BME280;32853;52.164;5.400;2023-09-12T05:20:44;101194.50;;;21.68;100.00
47104;BME280;32853;52.164;5.400;2023-09-12T05:23:12;101150.38;;;21.21;100.00
47104;BME280;32853;52.164;5.400;2023-09-12T05:25:38;101089.69;;;20.81;100.00
47104;BME280;32853;52.164;5.400;2023-09-12T05:28:04;101213.53;;;21.41;100.00
47104;BME280;32853;52.164;5.400;2023-09-12T05:30:30;101112.91;;;20.90;100.00
47104;BME280;32853;52.164;5.400;2023-09-12T05:33:15;101203.47;;;21.44;100.00
47104;BME280;32853;52.164;5.400;2023-09-12T05:35:52;101114.84;;;20.88;100.00
47104;BME280;32853;52.164;5.400;2023-09-12T05:38:18;101116.78;;;20.86;100.00
47104;BME280;32853;52.164;5.400;2023-09-12T05:40:43;101202.03;;;21.29;100.00
47104;BME280;32853;52.164;5.400;2023-09-12T05:43:08;101155.31;;;21.03;100.00
47104;BME280;32853;52.164;5.400;2023-09-12T05:45:44;101178.16;;;21.16;100.00
47104;BME280;32853;52.164;5.400;2023-09-12T05:48:27;101054.66;;;20.42;100.00
47104;BME280;32853;52.164;5.400;2023-09-12T05:50:52;101179.75;;;21.19;100.00
47104;BME280;32853;52.164;5.400;2023-09-12T05:53:18;101201.41;;;21.37;100.00
47104;BME280;32853;52.164;5.400;2023-09-12T05:55:43;101061.06;;;20.51;100.00
47104;BME280;32853;52.164;5.400;2023-09-12T05:58:14;101207.09;;;21.55;100.00
47104;BME280;32853;52.164;5.400;2023-09-12T06:00:52;101187.13;;;21.49;100.00
47104;BME280;32853;52.164;5.400;2023-09-12T06:03:31;101183.00;;;21.56;100.00
47104;BME280;32853;52.164;5.400;2023-09-12T06:05:58;101200.91;;;21.77;100.00
47104;BME280;32853;52.164;5.400;2023-09-12T06:08:24;101184.09;;;21.65;100.00
47104;BME280;32853;52.164;5.400;2023-09-12T06:10:49;101213.59;;;21.84;100.00
47104;BME280;32853;52.164;5.400;2023-09-12T06:13:19;101226.38;;;21.90;100.00
47104;BME280;32853;52.164;5.400;2023-09-12T06:15:46;101225.50;;;22.01;100.00
47104;BME280;32853;52.164;5.400;2023-09-12T06:18:12;101078.84;;;21.06;100.00
47104;BME280;32853;52.164;5.400;2023-09-12T06:20:47;101228.06;;;22.02;100.00
47104;BME280;32853;52.164;5.400;2023-09-12T06:23:13;101148.69;;;21.53;100.00
47104;BME280;32853;52.164;5.400;2023-09-12T06:25:40;101190.97;;;21.67;100.00
47104;BME280;32853;52.164;5.400;2023-09-12T06:28:08;101165.47;;;21.65;100.00
47104;BME280;32853;52.164;5.400;2023-09-12T06:30:36;101227.59;;;21.97;100.00
47104;BME280;32853;52.164;5.400;2023-09-12T06:33:06;101233.50;;;22.01;100.00
47104;BME280;32853;52.164;5.400;2023-09-12T06:35:32;101261.00;;;22.01;100.00
47104;BME280;32853;52.164;5.400;2023-09-12T06:38:05;101178.88;;;21.74;100.00
47104;BME280;32853;52.164;5.400;2023-09-12T06:40:30;101242.34;;;22.13;100.00
47104;BME280;32853;52.164;5.400;2023-09-12T06:42:55;101135.25;;;21.55;100.00
47104;BME280;32853;52.164;5.400;2023-09-12T06:45:22;101097.53;;;21.05;100.00
47104;BME280;32853;52.164;5.400;2023-09-12T06:47:47;101149.78;;;21.51;100.00
47104;BME280;32853;52.164;5.400;2023-09-12T06:50:12;101153.88;;;21.55;100.00
47104;BME280;32853;52.164;5.400;2023-09-12T06:52:38;101176.69;;;21.68;100.00
47104;BME280;32853;52.164;5.400;2023-09-12T06:55:03;101187.44;;;21.78;100.00
47104;BME280;32853;52.164;5.400;2023-09-12T06:57:28;101212.59;;;21.96;100.00
47104;BME280;32853;52.164;5.400;2023-09-12T06:59:54;100990.66;;;20.56;100.00
47104;BME280;32853;52.164;5.400;2023-09-12T07:02:20;101189.13;;;21.79;100.00
47104;BME280;32853;52.164;5.400;2023-09-12T07:04:45;101262.81;;;22.12;100.00
47104;BME280;32853;52.164;5.400;2023-09-12T07:07:10;101250.34;;;22.13;100.00
47104;BME280;32853;52.164;5.400;2023-09-12T07:09:42;101243.31;;;22.12;100.00
47104;BME280;32853;52.164;5.400;2023-09-12T07:12:13;101260.28;;;22.11;100.00
47104;BME280;32853;52.164;5.400;2023-09-12T07:14:40;101195.19;;;21.81;100.00
47104;BME280;32853;52.164;5.400;2023-09-12T07:17:35;101249.31;;;22.25;100.00
47104;BME280;32853;52.164;5.400;2023-09-12T07:20:01;101191.66;;;21.92;100.00
47104;BME280;32853;52.164;5.400;2023-09-12T07:22:45;101235.75;;;22.28;100.00
47104;BME280;32853;52.164;5.400;2023-09-12T07:25:17;101225.75;;;22.20;100.00
47104;BME280;32853;52.164;5.400;2023-09-12T07:27:50;101093.31;;;21.36;100.00
47104;BME280;32853;52.164;5.400;2023-09-12T07:30:16;101238.88;;;22.33;100.00
47104;BME280;32853;52.164;5.400;2023-09-12T07:32:48;101251.69;;;22.39;100.00
47104;BME280;32853;52.164;5.400;2023-09-12T07:35:21;101260.03;;;22.46;100.00
47104;BME280;32853;52.164;5.400;2023-09-12T07:37:50;101199.00;;;22.11;100.00
47104;BME280;32853;52.164;5.400;2023-09-12T07:40:21;101211.31;;;22.23;100.00
47104;BME280;32853;52.164;5.400;2023-09-12T07:42:47;101066.44;;;21.39;100.00
47104;BME280;32853;52.164;5.400;2023-09-12T07:45:21;101088.19;;;21.55;100.00
47104;BME280;32853;52.164;5.400;2023-09-12T07:58:41;101256.66;;;22.97;100.00
47104;BME280;32853;52.164;5.400;2023-09-12T08:04:55;101054.63;;;21.96;100.00
47104;BME280;32853;52.164;5.400;2023-09-12T08:07:20;101189.97;;;22.76;100.00
47104;BME280;32853;52.164;5.400;2023-09-12T08:09:58;101185.44;;;22.87;100.00
47104;BME280;32853;52.164;5.400;2023-09-12T08:12:25;101208.56;;;23.08;100.00
47104;BME280;32853;52.164;5.400;2023-09-12T08:14:53;101260.09;;;23.39;100.00
47104;BME280;32853;52.164;5.400;2023-09-12T08:17:18;101270.56;;;23.52;100.00
47104;BME280;32853;52.164;5.400;2023-09-12T08:19:46;101259.63;;;23.55;100.00
47104;BME280;32853;52.164;5.400;2023-09-12T08:22:12;101232.84;;;23.35;100.00
47104;BME280;32853;52.164;5.400;2023-09-12T08:24:40;101015.06;;;22.12;100.00
47104;BME280;32853;52.164;5.400;2023-09-12T08:27:06;101268.19;;;23.89;100.00
47104;BME280;32853;52.164;5.400;2023-09-12T08:29:32;101123.47;;;23.14;100.00
47104;BME280;32853;52.164;5.400;2023-09-12T08:31:58;101182.81;;;23.68;100.00
47104;BME280;32853;52.164;5.400;2023-09-12T08:34:27;101271.91;;;24.17;100.00
47104;BME280;32853;52.164;5.400;2023-09-12T08:36:52;101251.47;;;23.96;100.00
47104;BME280;32853;52.164;5.400;2023-09-12T08:39:27;101213.91;;;23.88;100.00
47104;BME280;32853;52.164;5.400;2023-09-12T08:42:07;101285.75;;;24.41;100.00
47104;BME280;32853;52.164;5.400;2023-09-12T08:44:40;101280.81;;;24.46;100.00
47104;BME280;32853;52.164;5.400;2023-09-12T08:47:12;101240.25;;;24.22;100.00
47104;BME280;32853;52.164;5.400;2023-09-12T08:49:45;101273.94;;;24.44;100.00
47104;BME280;32853;52.164;5.400;2023-09-12T08:52:14;101274.34;;;24.49;100.00
47104;BME280;32853;52.164;5.400;2023-09-12T08:54:40;101279.13;;;24.55;100.00
47104;BME280;32853;52.164;5.400;2023-09-12T08:57:06;101183.69;;;23.97;100.00
47104;BME280;32853;52.164;5.400;2023-09-12T08:59:45;101282.66;;;24.65;100.00
47104;BME280;32853;52.164;5.400;2023-09-12T09:02:15;101283.63;;;24.74;100.00
47104;BME280;32853;52.164;5.400;2023-09-12T09:04:42;101284.47;;;24.74;100.00
47104;BME280;32853;52.164;5.400;2023-09-12T09:07:11;101212.13;;;24.37;100.00
47104;BME280;32853;52.164;5.400;2023-09-12T09:09:46;101217.09;;;24.32;100.00
47104;BME280;32853;52.164;5.400;2023-09-12T09:12:14;101266.56;;;24.94;100.00
47104;BME280;32853;52.164;5.400;2023-09-12T09:14:42;101126.88;;;24.15;100.00
47104;BME280;32853;52.164;5.400;2023-09-12T09:17:14;101273.88;;;25.11;100.00
47104;BME280;32853;52.164;5.400;2023-09-12T09:19:41;101276.28;;;25.05;100.00
47104;BME280;32853;52.164;5.400;2023-09-12T09:22:07;101276.16;;;24.97;100.00
47104;BME280;32853;52.164;5.400;2023-09-12T09:24:33;101285.09;;;25.25;100.00
47104;BME280;32853;52.164;5.400;2023-09-12T09:27:08;101223.31;;;25.08;100.00
47104;BME280;32853;52.164;5.400;2023-09-12T09:30:00;101264.22;;;25.38;100.00
47104;BME280;32853;52.164;5.400;2023-09-12T09:32:29;101281.94;;;25.48;100.00
47104;BME280;32853;52.164;5.400;2023-09-12T09:35:16;101301.16;;;25.34;100.00
47104;BME280;32853;52.164;5.400;2023-09-12T09:37:43;101289.59;;;25.34;100.00
47104;BME280;32853;52.164;5.400;2023-09-12T09:40:10;101297.25;;;25.29;100.00
47104;BME280;32853;52.164;5.400;2023-09-12T09:42:37;101284.28;;;25.24;100.00
47104;BME280;32853;52.164;5.400;2023-09-12T09:45:06;101288.00;;;24.84;100.00
47104;BME280;32853;52.164;5.400;2023-09-12T09:47:32;101130.69;;;24.02;100.00
47104;BME280;32853;52.164;5.400;2023-09-12T09:49:58;101294.59;;;25.19;100.00
47104;BME280;32853;52.164;5.400;2023-09-12T09:52:27;101294.81;;;25.35;100.00
47104;BME280;32853;52.164;5.400;2023-09-12T09:54:56;101297.81;;;25.23;100.00
47104;BME280;32853;52.164;5.400;2023-09-12T09:57:25;101298.63;;;25.33;100.00
47104;BME280;32853;52.164;5.400;2023-09-12T10:00:01;101288.00;;;25.51;100.00
47104;BME280;32853;52.164;5.400;2023-09-12T10:02:35;101297.16;;;25.48;100.00
47104;BME280;32853;52.164;5.400;2023-09-12T10:05:04;101290.88;;;25.39;100.00
47104;BME280;32853;52.164;5.400;2023-09-12T10:07:43;101251.59;;;25.20;100.00
47104;BME280;32853;52.164;5.400;2023-09-12T10:10:29;101303.50;;;25.47;100.00
47104;BME280;32853;52.164;5.400;2023-09-12T10:13:08;101273.00;;;25.30;100.00
47104;BME280;32853;52.164;5.400;2023-09-12T10:15:36;101163.59;;;24.61;100.00
47104;BME280;32853;52.164;5.400;2023-09-12T10:18:18;101305.28;;;25.66;100.00
47104;BME280;32853;52.164;5.400;2023-09-12T10:21:15;101315.56;;;25.70;100.00
47104;BME280;32853;52.164;5.400;2023-09-12T10:23:49;101307.00;;;25.57;100.00
47104;BME280;32853;52.164;5.400;2023-09-12T10:26:17;101308.59;;;25.50;100.00
47104;BME280;32853;52.164;5.400;2023-09-12T10:31:51;101212.44;;;25.19;100.00
47104;BME280;32853;52.164;5.400;2023-09-12T10:37:41;101285.59;;;26.12;100.00
47104;BME280;32853;52.164;5.400;2023-09-12T10:40:11;101290.13;;;26.29;100.00
47104;BME280;32853;52.164;5.400;2023-09-12T10:42:48;101116.19;;;25.45;100.00
47104;BME280;32853;52.164;5.400;2023-09-12T10:45:15;101238.94;;;26.23;100.00
47104;BME280;32853;52.164;5.400;2023-09-12T10:47:42;101315.44;;;26.80;100.00
47104;BME280;32853;52.164;5.400;2023-09-12T10:50:08;101246.22;;;26.30;100.00
47104;BME280;32853;52.164;5.400;2023-09-12T10:52:33;101250.97;;;26.19;100.00
47104;BME280;32853;52.164;5.400;2023-09-12T10:55:22;101298.66;;;26.78;100.00
47104;BME280;32853;52.164;5.400;2023-09-12T10:58:08;101302.69;;;26.82;100.00
47104;BME280;32853;52.164;5.400;2023-09-12T11:00:33;101298.03;;;27.02;100.00
47104;BME280;32853;52.164;5.400;2023-09-12T11:06:20;101245.03;;;26.60;100.00
47104;BME280;32853;52.164;5.400;2023-09-12T11:11:34;101267.25;;;26.97;100.00
47104;BME280;32853;52.164;5.400;2023-09-12T11:14:03;101176.41;;;26.58;100.00
47104;BME280;32853;52.164;5.400;2023-09-12T11:16:34;101144.84;;;26.34;98.13
47104;BME280;32853;52.164;5.400;2023-09-12T11:19:24;101284.34;;;27.39;100.00
47104;BME280;32853;52.164;5.400;2023-09-12T11:21:54;101224.81;;;27.18;100.00
47104;BME280;32853;52.164;5.400;2023-09-12T11:24:24;101252.00;;;27.23;100.00
47104;BME280;32853;52.164;5.400;2023-09-12T11:27:05;101243.56;;;27.44;100.00
47104;BME280;32853;52.164;5.400;2023-09-12T11:29:40;101263.19;;;27.10;100.00
47104;BME280;32853;52.164;5.400;2023-09-12T11:32:25;101176.38;;;26.76;100.00
47104;BME280;32853;52.164;5.400;2023-09-12T11:34:52;101262.81;;;27.31;100.00
47104;BME280;32853;52.164;5.400;2023-09-12T11:37:26;101233.97;;;27.41;100.00
47104;BME280;32853;52.164;5.400;2023-09-12T11:39:57;101161.16;;;26.84;99.92
47104;BME280;32853;52.164;5.400;2023-09-12T11:42:25;101265.09;;;27.86;98.34
47104;BME280;32853;52.164;5.400;2023-09-12T11:44:55;101225.47;;;27.54;94.78
47104;BME280;32853;52.164;5.400;2023-09-12T11:47:21;101078.28;;;26.81;94.93
47104;BME280;32853;52.164;5.400;2023-09-12T11:49:47;101041.44;;;26.57;94.66
47104;BME280;32853;52.164;5.400;2023-09-12T11:52:13;101241.44;;;28.14;92.47
47104;BME280;32853;52.164;5.400;2023-09-12T11:54:45;101116.13;;;27.38;91.82
47104;BME280;32853;52.164;5.400;2023-09-12T11:57:14;101226.16;;;28.23;89.45
47104;BME280;32853;52.164;5.400;2023-09-12T11:59:43;101263.03;;;28.47;88.65
47104;BME280;32853;52.164;5.400;2023-09-12T12:02:14;101122.69;;;27.60;90.06
47104;BME280;32853;52.164;5.400;2023-09-12T12:04:42;101271.28;;;28.53;88.37
47104;BME280;32853;52.164;5.400;2023-09-12T12:07:07;101212.38;;;28.10;86.59
47104;BME280;32853;52.164;5.400;2023-09-12T12:09:35;101127.50;;;27.83;86.95
47104;BME280;32853;52.164;5.400;2023-09-12T12:12:12;101207.53;;;28.38;86.81
47104;BME280;32853;52.164;5.400;2023-09-12T12:14:50;101259.84;;;28.92;85.19
47104;BME280;32853;52.164;5.400;2023-09-12T12:17:19;101284.41;;;28.81;81.40
47104;BME280;32853;52.164;5.400;2023-09-12T12:19:47;101253.44;;;28.85;80.70
47104;BME280;32853;52.164;5.400;2023-09-12T12:22:28;101226.91;;;28.49;80.43
47104;BME280;32853;52.164;5.400;2023-09-12T12:24:53;101255.59;;;29.14;82.61
47104;BME280;32853;52.164;5.400;2023-09-12T12:27:18;101175.75;;;28.65;81.19
47104;BME280;32853;52.164;5.400;2023-09-12T12:29:50;101093.53;;;28.47;81.83
47104;BME280;32853;52.164;5.400;2023-09-12T12:32:29;101191.03;;;28.89;80.81
47104;BME280;32853;52.164;5.400;2023-09-12T12:35:00;101039.44;;;28.17;80.54
47104;BME280;32853;52.164;5.400;2023-09-12T12:37:31;101247.56;;;29.61;80.18
47104;BME280;32853;52.164;5.400;2023-09-12T12:40:13;101109.75;;;28.86;78.08
47104;BME280;32853;52.164;5.400;2023-09-12T12:42:45;101254.19;;;29.50;76.94
47104;BME280;32853;52.164;5.400;2023-09-12T12:45:22;101158.75;;;28.73;77.33
47104;BME280;32853;52.164;5.400;2023-09-12T12:47:58;101197.94;;;28.59;77.74
47104;BME280;32853;52.164;5.400;2023-09-12T12:50:27;101205.59;;;29.19;78.23
47104;BME280;32853;52.164;5.400;2023-09-12T12:53:06;101239.97;;;29.65;74.76
47104;BME280;32853;52.164;5.400;2023-09-12T12:55:34;101170.97;;;29.00;69.90
47104;BME280;32853;52.164;5.400;2023-09-12T12:58:18;101187.16;;;28.84;68.95
47104;BME280;32853;52.164;5.400;2023-09-12T13:00:53;101239.50;;;29.45;69.16
47104;BME280;32853;52.164;5.400;2023-09-12T13:03:38;101228.81;;;29.68;71.21
47104;BME280;32853;52.164;5.400;2023-09-12T13:06:08;101247.84;;;29.74;70.92
47104;BME280;32853;52.164;5.400;2023-09-12T13:08:45;101244.88;;;29.61;69.76
47104;BME280;32853;52.164;5.400;2023-09-12T13:11:19;101172.78;;;29.16;72.31
47104;BME280;32853;52.164;5.400;2023-09-12T13:13:47;101191.13;;;29.12;70.06
47104;BME280;32853;52.164;5.400;2023-09-12T13:16:21;101245.09;;;29.52;69.49
47104;BME280;32853;52.164;5.400;2023-09-12T13:18:55;101044.63;;;28.35;69.90
47104;BME280;32853;52.164;5.400;2023-09-12T13:21:21;101244.63;;;29.23;72.14
47104;BME280;32853;52.164;5.400;2023-09-12T13:23:51;101195.22;;;28.92;75.26
47104;BME280;32853;52.164;5.400;2023-09-12T13:26:16;101240.81;;;29.02;78.18
47104;BME280;32853;52.164;5.400;2023-09-12T13:28:42;101156.88;;;27.92;79.61
47104;BME280;32853;52.164;5.400;2023-09-12T13:31:07;101253.78;;;28.41;73.95
47104;BME280;32853;52.164;5.400;2023-09-12T13:33:35;101225.94;;;27.84;77.54